createdAt,value
2023-03-05T00:01:42.347Z,80.26
2023-03-05T00:04:16.385Z,79.57
2023-03-05T00:06:45.011Z,78.95
2023-03-05T00:09:13.371Z,78.39
2023-03-05T00:11:41.948Z,78.27
2023-03-05T00:14:12.117Z,78.32
2023-03-05T00:16:41.117Z,77.65
2023-03-05T00:19:10.067Z,77.26
2023-03-05T00:21:41.309Z,76.99
2023-03-05T00:24:14.197Z,76.78
2023-03-05T00:26:43.354Z,76.14
2023-03-05T00:29:18.342Z,76.14
2023-03-05T00:31:47.571Z,76.29
2023-03-05T00:34:19.075Z,75.99
2023-03-05T00:36:51.553Z,76.03
2023-03-05T00:39:23.256Z,75.52
2023-03-05T00:41:52.188Z,75.73
2023-03-05T00:44:21.080Z,75.65
2023-03-05T00:46:50.146Z,75.12
2023-03-05T00:49:18.676Z,74.78
2023-03-05T00:51:48.500Z,74.52
2023-03-05T00:54:17.043Z,74.26
2023-03-05T00:56:45.608Z,73.48
2023-03-05T00:59:14.053Z,73.77
2023-03-05T01:01:42.519Z,73.84
2023-03-05T01:04:11.237Z,73.76
2023-03-05T01:06:42.795Z,73.87
2023-03-05T01:09:12.690Z,74.12
2023-03-05T01:11:41.375Z,74.12
2023-03-05T01:14:10.500Z,74.52
2023-03-05T01:16:39.031Z,75.01
2023-03-05T01:19:07.587Z,75.13
2023-03-05T01:21:36.692Z,75.67
2023-03-05T01:24:06.871Z,75.76
2023-03-05T01:26:37.003Z,75.76
2023-03-05T01:29:05.866Z,75.17
2023-03-05T01:31:34.442Z,75.46
2023-03-05T01:34:03.026Z,75.23
2023-03-05T01:36:32.072Z,75.26
2023-03-05T01:39:00.631Z,74.59
2023-03-05T01:41:29.299Z,74.49
2023-03-05T01:43:59.079Z,74.02
2023-03-05T01:46:32.769Z,74.12
2023-03-05T01:49:09.395Z,74.29
2023-03-05T01:51:43.808Z,74.37
2023-03-05T01:54:15.378Z,74.43
2023-03-05T01:56:45.364Z,74.15
2023-03-05T01:59:16.197Z,73.98
2023-03-05T02:01:49.853Z,73.99
2023-03-05T02:04:20.791Z,74.01
2023-03-05T02:06:49.938Z,73.28
2023-03-05T02:09:18.391Z,73.08
2023-03-05T02:11:46.898Z,73.18
2023-03-05T02:14:16.757Z,71.45
2023-03-05T02:16:45.452Z,70.88
2023-03-05T02:19:14.569Z,70.44
2023-03-05T02:21:47.091Z,71.03
2023-03-05T02:24:18.507Z,71.14
2023-03-05T02:26:49.038Z,71.01
2023-03-05T02:29:21.283Z,70.78
2023-03-05T02:31:49.684Z,69.49
2023-03-05T02:34:18.460Z,68.63
2023-03-05T02:36:50.330Z,68.70
2023-03-05T02:39:19.520Z,67.80
2023-03-05T02:41:47.938Z,67.54
2023-03-05T02:44:16.782Z,67.43
2023-03-05T02:46:45.288Z,67.70
2023-03-05T02:49:13.741Z,66.88
2023-03-05T02:51:42.521Z,66.66
2023-03-05T02:54:12.851Z,66.39
2023-03-05T02:56:43.478Z,66.11
2023-03-05T02:59:12.019Z,65.93
2023-03-05T03:01:40.550Z,65.92
2023-03-05T03:04:09.061Z,66.36
2023-03-05T03:06:37.496Z,66.97
2023-03-05T03:09:06.121Z,66.97
2023-03-05T03:11:35.975Z,67.58
2023-03-05T03:14:04.394Z,68.12
2023-03-05T03:16:32.930Z,68.43
2023-03-05T03:19:01.355Z,68.82
2023-03-05T03:21:29.823Z,68.77
2023-03-05T03:23:58.339Z,68.86
2023-03-05T03:26:26.871Z,69.65
2023-03-05T03:28:56.633Z,69.79
2023-03-05T03:31:25.309Z,69.80
2023-03-05T03:33:53.793Z,69.91
2023-03-05T03:36:22.289Z,70.10
2023-03-05T03:38:50.704Z,70.87
2023-03-05T03:41:19.957Z,70.71
2023-03-05T03:43:48.341Z,70.74
2023-03-05T03:46:18.157Z,70.81
2023-03-05T03:48:46.545Z,71.04
2023-03-05T03:51:14.900Z,71.64
2023-03-05T03:53:43.212Z,71.69
2023-03-05T03:56:11.594Z,72.23
2023-03-05T03:58:39.986Z,72.30
2023-03-05T04:01:08.617Z,72.30
2023-03-05T04:03:38.522Z,72.14
2023-03-05T04:06:08.138Z,71.23
2023-03-05T04:08:36.530Z,70.79
2023-03-05T04:11:05.232Z,70.95
2023-03-05T04:13:33.926Z,70.76
2023-03-05T04:16:02.465Z,70.58
2023-03-05T04:18:32.534Z,69.48
2023-03-05T04:21:02.461Z,69.75
2023-03-05T04:23:30.995Z,69.39
2023-03-05T04:25:59.805Z,68.85
2023-03-05T04:28:28.255Z,69.04
2023-03-05T04:30:56.714Z,68.93
2023-03-05T04:33:25.520Z,68.98
2023-03-05T04:35:54.212Z,69.19
2023-03-05T04:38:24.311Z,69.12
2023-03-05T04:40:53.164Z,68.81
2023-03-05T04:43:22.302Z,68.70
2023-03-05T04:45:50.774Z,68.93
2023-03-05T04:48:19.226Z,68.48
2023-03-05T04:50:47.646Z,68.22
2023-03-05T04:53:16.095Z,68.46
2023-03-05T04:55:45.973Z,67.34
2023-03-05T04:58:14.458Z,67.32
2023-03-05T05:00:42.836Z,67.17
2023-03-05T05:03:11.316Z,66.56
2023-03-05T05:05:39.866Z,66.24
2023-03-05T05:08:08.362Z,66.19
2023-03-05T05:10:38.695Z,65.68
2023-03-05T05:13:08.643Z,65.50
2023-03-05T05:15:37.062Z,65.87
2023-03-05T05:18:05.662Z,66.23
2023-03-05T05:20:34.124Z,66.49
2023-03-05T05:23:02.551Z,66.38
2023-03-05T05:25:30.986Z,66.88
2023-03-05T05:27:59.626Z,66.33
2023-03-05T05:30:29.533Z,66.04
2023-03-05T05:32:58.691Z,65.59
2023-03-05T05:35:27.294Z,65.09
2023-03-05T05:37:55.873Z,64.13
2023-03-05T05:40:24.449Z,63.90
2023-03-05T05:42:52.922Z,63.96
2023-03-05T05:45:21.368Z,64.08
2023-03-05T05:47:51.135Z,70.76
2023-03-05T05:50:20.621Z,67.89
2023-03-05T05:52:49.358Z,68.73
2023-03-05T05:55:18.033Z,62.81
2023-03-05T05:57:46.459Z,65.50
2023-03-05T06:00:16.487Z,69.62
2023-03-05T06:02:45.690Z,61.61
2023-03-05T06:05:16.118Z,62.82
2023-03-05T06:07:44.895Z,59.14
2023-03-05T06:10:14.021Z,62.01
2023-03-05T06:12:42.497Z,56.62
2023-03-05T06:15:11.863Z,57.43
2023-03-05T06:17:40.540Z,57.96
2023-03-05T06:20:10.624Z,63.01
2023-03-05T06:22:41.330Z,60.53
2023-03-05T06:25:11.309Z,58.02
2023-03-05T06:27:40.317Z,61.19
2023-03-05T06:30:11.689Z,56.86
2023-03-05T06:32:40.262Z,55.01
2023-03-05T06:35:10.006Z,54.19
2023-03-05T06:37:39.778Z,54.96
2023-03-05T06:40:10.243Z,56.04
2023-03-05T06:42:38.664Z,55.20
2023-03-05T06:45:09.140Z,57.42
2023-03-05T06:47:37.584Z,56.76
2023-03-05T06:50:07.482Z,57.78
2023-03-05T06:52:35.927Z,58.31
2023-03-05T06:55:06.519Z,58.31
2023-03-05T06:57:35.302Z,58.86
2023-03-05T07:00:08.055Z,59.69
2023-03-05T07:02:36.513Z,60.24
2023-03-05T07:05:05.381Z,60.41
2023-03-05T07:07:34.321Z,60.79
2023-03-05T07:10:03.324Z,61.09
2023-03-05T07:12:34.046Z,61.63
2023-03-05T07:15:02.922Z,62.16
2023-03-05T07:17:31.669Z,62.60
2023-03-05T07:20:00.330Z,62.75
2023-03-05T07:22:28.753Z,62.80
2023-03-05T07:24:57.193Z,63.40
2023-03-05T07:27:25.654Z,64.44
2023-03-05T07:29:55.474Z,65.29
2023-03-05T07:32:23.972Z,66.01
2023-03-05T07:34:52.392Z,66.51
2023-03-05T07:37:20.775Z,67.19
2023-03-05T07:39:49.503Z,67.05
2023-03-05T07:42:17.916Z,67.57
2023-03-05T07:44:58.908Z,67.58
2023-03-05T07:47:27.452Z,68.52
2023-03-05T07:49:56.786Z,69.30
2023-03-05T07:52:25.210Z,69.52
2023-03-05T07:54:53.828Z,69.74
2023-03-05T07:57:22.217Z,69.51
2023-03-05T07:59:50.730Z,70.15
2023-03-05T08:02:21.668Z,70.37
2023-03-05T08:04:50.129Z,70.45
2023-03-05T08:07:18.818Z,70.53
2023-03-05T08:09:47.397Z,70.08
2023-03-05T08:12:15.818Z,70.07
2023-03-05T08:14:44.294Z,70.18
2023-03-05T08:17:13.064Z,70.27
2023-03-05T08:19:43.488Z,69.60
2023-03-05T08:22:12.501Z,69.73
2023-03-05T08:24:41.299Z,70.25
2023-03-05T08:27:10.000Z,69.97
2023-03-05T08:29:38.690Z,69.64
2023-03-05T08:32:07.748Z,70.34
2023-03-05T08:34:36.342Z,70.02
2023-03-05T08:37:07.814Z,70.05
2023-03-05T08:39:36.599Z,69.60
2023-03-05T08:42:08.583Z,70.12
2023-03-05T08:44:38.054Z,69.84
2023-03-05T08:47:08.927Z,70.42
2023-03-05T08:49:38.472Z,70.92
2023-03-05T08:52:08.551Z,71.29
2023-03-05T08:54:38.497Z,76.20
2023-03-05T08:57:07.272Z,74.78
2023-03-05T08:59:35.899Z,73.23
2023-03-05T09:02:04.673Z,71.11
2023-03-05T09:04:33.370Z,71.25
2023-03-05T09:07:01.951Z,70.34
2023-03-05T09:09:33.044Z,68.45
2023-03-05T09:12:01.681Z,67.01
2023-03-05T09:14:33.197Z,66.76
2023-03-05T09:17:03.446Z,66.45
2023-03-05T09:19:32.064Z,64.77
2023-03-05T09:22:00.972Z,64.82
2023-03-05T09:24:31.351Z,66.08
2023-03-05T09:27:01.028Z,63.96
2023-03-05T09:29:31.342Z,66.27
2023-03-05T09:32:00.051Z,64.75
2023-03-05T09:34:29.078Z,64.86
2023-03-05T09:36:57.632Z,63.77
2023-03-05T09:39:26.582Z,63.44
2023-03-05T09:42:23.110Z,66.21
2023-03-05T09:45:09.720Z,63.82
2023-03-05T09:48:02.150Z,64.10
2023-03-05T09:50:39.465Z,64.12
2023-03-05T09:53:22.078Z,64.73
2023-03-05T09:55:54.030Z,64.41
2023-03-05T09:58:33.991Z,64.33
2023-03-05T10:01:06.559Z,64.21
2023-03-05T10:03:51.413Z,64.28
2023-03-05T10:06:25.803Z,61.59
2023-03-05T10:08:58.498Z,64.28
2023-03-05T10:11:48.658Z,62.19
2023-03-05T10:14:27.937Z,61.23
2023-03-05T10:17:52.518Z,62.09
2023-03-05T10:20:39.326Z,61.15
2023-03-05T10:23:38.638Z,60.31
2023-03-05T10:26:23.539Z,59.93
2023-03-05T10:29:06.715Z,59.07
2023-03-05T10:32:03.878Z,59.98
2023-03-05T10:35:07.914Z,58.56
2023-03-05T10:38:05.787Z,59.03
2023-03-05T10:40:42.480Z,58.57
2023-03-05T10:43:24.262Z,60.00
2023-03-05T10:45:55.629Z,59.29
2023-03-05T10:48:36.212Z,59.34
2023-03-05T10:51:14.963Z,59.48
2023-03-05T10:53:56.012Z,59.60
2023-03-05T10:56:28.244Z,60.04
2023-03-05T10:58:56.950Z,60.66
2023-03-05T11:01:28.230Z,60.98
2023-03-05T11:04:00.518Z,62.12
2023-03-05T11:06:37.986Z,62.48
2023-03-05T11:09:26.642Z,62.90
2023-03-05T11:12:14.920Z,63.11
2023-03-05T11:14:46.982Z,63.28
2023-03-05T11:17:33.054Z,63.41
2023-03-05T11:20:32.927Z,63.44
2023-03-05T11:23:11.255Z,63.38
2023-03-05T11:26:02.206Z,63.04
2023-03-05T11:28:37.323Z,62.84
2023-03-05T11:31:21.337Z,63.37
2023-03-05T11:33:59.492Z,65.26
2023-03-05T11:36:33.435Z,66.32
2023-03-05T11:39:15.590Z,67.34
2023-03-05T11:41:48.187Z,67.20
2023-03-05T11:44:23.217Z,66.58
2023-03-05T11:46:55.911Z,66.93
2023-03-05T11:49:28.382Z,65.73
2023-03-05T11:52:07.075Z,65.24
2023-03-05T11:54:44.010Z,66.00
2023-03-05T11:57:15.642Z,65.49
2023-03-05T11:59:45.345Z,65.73
2023-03-05T12:02:20.871Z,66.13
2023-03-05T12:04:50.628Z,65.68
2023-03-05T12:07:28.293Z,65.16
2023-03-05T12:09:57.431Z,65.31
2023-03-05T12:12:38.870Z,64.18
2023-03-05T12:15:38.996Z,63.69
2023-03-05T12:18:20.397Z,63.23
2023-03-05T12:20:59.279Z,63.42
2023-03-05T12:23:29.553Z,62.32
2023-03-05T12:26:01.522Z,62.22
2023-03-05T12:29:01.390Z,61.11
2023-03-05T12:31:40.642Z,61.56
2023-03-05T12:34:38.093Z,61.54
2023-03-05T12:37:11.299Z,61.35
2023-03-05T12:39:59.028Z,61.04
2023-03-05T12:42:48.983Z,60.76
2023-03-05T12:45:39.518Z,61.48
2023-03-05T12:48:44.096Z,61.63
2023-03-05T12:51:34.615Z,60.97
2023-03-05T12:54:39.724Z,61.73
2023-03-05T12:57:19.144Z,62.12
2023-03-05T12:59:53.339Z,68.12
2023-03-05T13:02:33.255Z,61.44
2023-03-05T13:05:06.050Z,64.93
2023-03-05T13:07:35.186Z,59.65
2023-03-05T13:10:03.927Z,58.81
2023-03-05T13:12:34.012Z,58.41
2023-03-05T13:15:07.088Z,58.17
2023-03-05T13:17:40.228Z,57.96
2023-03-05T13:20:33.962Z,57.63
2023-03-05T13:23:24.844Z,57.59
2023-03-05T13:26:03.696Z,57.63
2023-03-05T13:28:34.673Z,56.32
2023-03-05T13:31:05.981Z,56.98
2023-03-05T13:33:37.240Z,57.29
2023-03-05T13:36:07.075Z,57.06
2023-03-05T13:38:40.322Z,57.57
2023-03-05T13:41:21.645Z,56.63
2023-03-05T13:43:54.006Z,55.55
2023-03-05T13:46:29.276Z,55.38
2023-03-05T13:48:59.406Z,54.87
2023-03-05T13:51:44.086Z,55.43
2023-03-05T13:54:17.722Z,55.72
2023-03-05T13:56:55.204Z,57.65
2023-03-05T13:59:30.775Z,58.36
2023-03-05T14:02:00.693Z,57.68
2023-03-05T14:04:31.105Z,58.16
2023-03-05T14:07:03.557Z,58.38
2023-03-05T14:09:43.463Z,58.06
2023-03-05T14:12:28.376Z,57.33
2023-03-05T14:14:59.762Z,57.88
2023-03-05T14:17:40.818Z,56.10
2023-03-05T14:20:23.187Z,55.73
2023-03-05T14:22:57.946Z,56.06
2023-03-05T14:25:36.527Z,56.05
2023-03-05T14:28:07.992Z,56.51
2023-03-05T14:30:38.296Z,56.47
2023-03-05T14:33:06.972Z,56.92
2023-03-05T14:35:36.243Z,57.37
2023-03-05T14:38:05.211Z,58.10
2023-03-05T14:40:35.643Z,58.59
2023-03-05T14:43:06.177Z,58.78
2023-03-05T14:45:38.835Z,59.37
2023-03-05T14:48:09.605Z,59.51
2023-03-05T14:50:41.365Z,59.86
2023-03-05T14:53:15.289Z,59.18
2023-03-05T14:55:44.821Z,58.94
2023-03-05T14:58:17.119Z,59.13
2023-03-05T15:00:50.069Z,58.80
2023-03-05T15:03:23.103Z,58.17
2023-03-05T15:05:54.248Z,58.41
2023-03-05T15:08:27.108Z,59.04
2023-03-05T15:10:55.966Z,59.71
2023-03-05T15:13:24.549Z,59.92
2023-03-05T15:15:55.327Z,60.20
2023-03-05T15:18:24.721Z,60.20
2023-03-05T15:20:54.889Z,59.83
2023-03-05T15:23:23.329Z,59.60
2023-03-05T15:25:52.088Z,59.51
2023-03-05T15:28:20.560Z,59.22
2023-03-05T15:30:49.308Z,59.72
2023-03-05T15:33:19.473Z,59.53
2023-03-05T15:35:48.038Z,59.73
2023-03-05T15:38:16.550Z,59.81
2023-03-05T15:40:46.067Z,59.81
2023-03-05T15:43:15.315Z,59.91
2023-03-05T15:45:43.845Z,59.79
2023-03-05T15:48:12.724Z,59.96
2023-03-05T15:50:43.713Z,60.63
2023-03-05T15:53:15.666Z,60.86
2023-03-05T15:55:46.294Z,61.02
2023-03-05T15:58:17.760Z,60.88
2023-03-05T16:00:49.151Z,60.71
2023-03-05T16:03:17.656Z,61.36
2023-03-05T16:05:47.621Z,61.46
2023-03-05T16:08:16.184Z,61.52
2023-03-05T16:10:44.695Z,61.32
2023-03-05T16:13:16.013Z,61.34
2023-03-05T16:15:47.260Z,61.44
2023-03-05T16:18:18.830Z,61.60
2023-03-05T16:20:48.867Z,61.10
2023-03-05T16:23:17.323Z,61.02
2023-03-05T16:25:46.245Z,60.70
2023-03-05T16:28:14.658Z,60.27
2023-03-05T16:30:43.356Z,60.39
2023-03-05T16:33:13.137Z,60.67
2023-03-05T16:35:41.524Z,60.58
2023-03-05T16:38:11.403Z,61.12
2023-03-05T16:41:06.253Z,61.74
2023-03-05T16:43:29.278Z,61.79
2023-03-05T16:45:57.673Z,61.78
2023-03-05T16:48:26.209Z,61.87
2023-03-05T16:50:54.705Z,62.00
2023-03-05T16:53:24.687Z,62.54
2023-03-05T16:55:53.294Z,62.03
2023-03-05T16:58:21.729Z,61.89
2023-03-05T17:00:50.132Z,61.75
2023-03-05T17:03:18.885Z,61.94
2023-03-05T17:05:47.437Z,62.06
2023-03-05T17:08:16.167Z,61.63
2023-03-05T17:10:46.174Z,61.95
2023-03-05T17:13:14.613Z,62.68
2023-03-05T17:18:12.449Z,62.07
2023-03-05T17:20:40.884Z,61.86
2023-03-05T17:23:09.385Z,62.28
2023-03-05T17:25:38.323Z,62.23
2023-03-05T17:28:08.273Z,62.26
2023-03-05T17:30:37.320Z,62.00
2023-03-05T17:33:06.742Z,62.27
2023-03-05T17:35:35.985Z,62.53
2023-03-05T17:38:05.090Z,62.66
2023-03-05T17:40:33.596Z,62.92
2023-03-05T17:43:02.566Z,63.71
2023-03-05T17:45:32.890Z,63.77
2023-03-05T17:48:01.340Z,63.70
2023-03-05T17:50:29.839Z,63.94
2023-03-05T17:52:58.677Z,64.06
2023-03-05T17:55:27.661Z,64.14
2023-03-05T17:57:56.231Z,64.15
2023-03-05T18:00:26.767Z,64.59
2023-03-05T18:02:56.765Z,65.12
2023-03-05T18:05:26.586Z,65.52
2023-03-05T18:07:55.955Z,65.55
2023-03-05T18:10:26.429Z,65.16
2023-03-05T18:12:55.126Z,65.54
2023-03-05T18:15:26.071Z,65.76
2023-03-05T18:17:56.637Z,65.46
2023-03-05T18:20:29.578Z,64.77
2023-03-05T18:23:02.190Z,64.73
2023-03-05T18:25:32.100Z,64.24
2023-03-05T18:28:01.675Z,64.37
2023-03-05T18:30:31.350Z,64.05
2023-03-05T18:33:02.031Z,63.90
2023-03-05T18:35:39.594Z,63.66
2023-03-05T18:38:08.483Z,63.69
2023-03-05T18:40:37.529Z,63.65
2023-03-05T18:43:06.143Z,63.92
2023-03-05T18:45:34.781Z,63.67
2023-03-05T18:48:04.543Z,63.61
2023-03-05T18:50:33.055Z,63.04
2023-03-05T18:53:01.486Z,63.47
2023-03-05T18:55:31.283Z,63.40
2023-03-05T18:57:59.673Z,63.35
2023-03-05T19:00:31.185Z,63.97
2023-03-05T19:03:00.151Z,63.43
2023-03-05T19:05:31.710Z,63.78
2023-03-05T19:08:00.526Z,63.82
2023-03-05T19:10:33.208Z,64.13
2023-03-05T19:13:15.787Z,63.96
2023-03-05T19:15:44.201Z,63.70
2023-03-05T19:18:13.237Z,63.88
2023-03-05T19:20:42.984Z,63.98
2023-03-05T19:23:11.387Z,64.39
2023-03-05T19:25:42.057Z,64.16
2023-03-05T19:28:10.501Z,64.46
2023-03-05T19:30:39.418Z,64.45
2023-03-05T19:33:07.880Z,64.34
2023-03-05T19:35:36.254Z,64.45
2023-03-05T19:38:06.094Z,64.38
2023-03-05T19:40:34.529Z,64.49
2023-03-05T19:43:02.870Z,64.66
2023-03-05T19:45:33.934Z,64.64
2023-03-05T19:48:02.385Z,64.66
2023-03-05T19:50:32.323Z,64.60
2023-03-05T19:53:01.999Z,64.95
2023-03-05T19:55:32.382Z,65.28
2023-03-05T19:58:00.793Z,65.18
2023-03-05T20:00:29.440Z,65.39
2023-03-05T20:02:58.630Z,65.44
2023-03-05T20:05:27.368Z,64.98
2023-03-05T20:07:55.715Z,65.26
2023-03-05T20:10:24.135Z,65.11
2023-03-05T20:12:53.928Z,65.42
2023-03-05T20:15:23.424Z,65.40
2023-03-05T20:17:54.106Z,65.67
2023-03-05T20:20:22.611Z,65.53
2023-03-05T20:22:51.054Z,65.29
2023-03-05T20:25:22.241Z,65.10
2023-03-05T20:27:50.882Z,65.38
2023-03-05T20:30:24.196Z,65.15
2023-03-05T20:32:52.611Z,64.93
2023-03-05T20:35:21.111Z,65.19
2023-03-05T20:38:00.222Z,65.15
2023-03-05T20:40:28.886Z,65.13
2023-03-05T20:42:57.266Z,65.50
2023-03-05T20:45:26.985Z,66.12
2023-03-05T20:47:55.384Z,66.02
2023-03-05T20:50:23.778Z,66.20
2023-03-05T20:52:52.252Z,66.40
2023-03-05T20:55:20.677Z,66.46
2023-03-05T20:57:49.051Z,66.45
2023-03-05T21:00:18.636Z,66.79
2023-03-05T21:02:50.238Z,67.23
2023-03-05T21:05:20.116Z,67.13
2023-03-05T21:07:48.615Z,67.00
2023-03-05T21:10:17.589Z,67.15
2023-03-05T21:12:47.198Z,67.19
2023-03-05T21:15:19.122Z,67.69
2023-03-05T21:17:48.894Z,67.63
2023-03-05T21:20:21.771Z,67.26
2023-03-05T21:22:50.368Z,67.38
2023-03-05T21:25:23.258Z,67.43
2023-03-05T21:27:55.060Z,67.04
2023-03-05T21:30:24.485Z,67.47
2023-03-05T21:32:54.234Z,67.51
2023-03-05T21:35:24.308Z,67.83
2023-03-05T21:37:52.826Z,67.52
2023-03-05T21:40:22.834Z,67.63
2023-03-05T21:42:52.758Z,67.54
2023-03-05T21:45:23.741Z,67.75
2023-03-05T21:47:54.122Z,68.29
2023-03-05T21:50:24.756Z,68.27
2023-03-05T21:52:53.839Z,68.46
2023-03-05T21:55:30.381Z,68.81
2023-03-05T21:58:00.898Z,68.82
2023-03-05T22:00:29.680Z,68.89
2023-03-05T22:02:59.414Z,69.15
2023-03-05T22:05:28.386Z,69.63
2023-03-05T22:07:59.298Z,69.79
2023-03-05T22:10:27.840Z,69.75
2023-03-05T22:13:06.923Z,69.49
2023-03-05T22:15:35.590Z,69.38
2023-03-05T22:18:05.627Z,69.60
2023-03-05T22:20:34.975Z,69.26
2023-03-05T22:23:03.625Z,69.37
2023-03-05T22:25:32.360Z,68.90
2023-03-05T22:28:00.926Z,68.83
2023-03-05T22:30:29.294Z,69.10
2023-03-05T22:32:57.827Z,68.86
2023-03-05T22:35:28.099Z,68.34
2023-03-05T22:37:56.734Z,68.84
2023-03-05T22:40:25.391Z,68.83
2023-03-05T22:42:54.095Z,68.71
2023-03-05T22:45:22.877Z,68.91
2023-03-05T22:47:51.976Z,68.61
2023-03-05T22:50:20.832Z,68.40
2023-03-05T22:52:50.867Z,68.64
2023-03-05T22:55:19.649Z,69.26
2023-03-05T22:57:48.239Z,69.02
2023-03-05T23:00:21.665Z,72.59
2023-03-05T23:02:51.002Z,71.92
2023-03-05T23:05:19.991Z,70.83
2023-03-05T23:07:50.262Z,70.45
2023-03-05T23:10:21.720Z,71.46
2023-03-05T23:12:53.174Z,70.53
2023-03-05T23:15:25.163Z,69.74
2023-03-05T23:17:54.196Z,69.70
2023-03-05T23:20:25.055Z,69.53
2023-03-05T23:22:56.279Z,69.39
2023-03-05T23:25:27.650Z,68.67
2023-03-05T23:27:58.121Z,68.74
2023-03-05T23:30:27.805Z,68.61
2023-03-05T23:32:58.730Z,68.40
2023-03-05T23:35:29.698Z,68.51
2023-03-05T23:38:02.645Z,69.04
2023-03-05T23:40:34.931Z,68.72
2023-03-05T23:43:03.820Z,68.41
2023-03-05T23:45:33.002Z,68.48
2023-03-05T23:48:01.610Z,68.81
2023-03-05T23:50:33.139Z,68.57
2023-03-05T23:53:03.831Z,68.28
2023-03-05T23:55:36.142Z,68.79
2023-03-05T23:58:05.363Z,68.98
